createdAt,value
2022-08-10T00:04:54.652Z,65.10
2022-08-10T00:09:58.085Z,65.50
2022-08-10T00:15:01.614Z,65.90
2022-08-10T00:20:08.732Z,66.40
2022-08-10T00:25:12.544Z,66.40
2022-08-10T00:30:16.176Z,66.90
2022-08-10T00:35:21.127Z,67.40
2022-08-10T00:40:35.244Z,67.90
2022-08-10T00:45:41.905Z,68.10
2022-08-10T00:50:47.674Z,68.90
2022-08-10T00:57:14.521Z,69.00
2022-08-10T01:02:08.598Z,69.50
2022-08-10T01:06:42.811Z,69.70
2022-08-10T01:12:37.619Z,70.50
2022-08-10T01:17:16.785Z,70.50
2022-08-10T01:22:38.785Z,71.40
2022-08-10T01:27:51.132Z,71.70
2022-08-10T01:33:01.551Z,72.50
2022-08-10T01:38:06.924Z,72.70
2022-08-10T01:43:11.189Z,73.70
2022-08-10T01:48:29.586Z,74.10
2022-08-10T01:53:41.146Z,74.90
2022-08-10T01:58:45.886Z,75.40
2022-08-10T02:04:03.997Z,75.90
2022-08-10T02:09:10.186Z,76.30
2022-08-10T02:14:15.179Z,77.00
2022-08-10T02:19:21.116Z,77.60
2022-08-10T02:24:25.755Z,78.50
2022-08-10T02:29:30.150Z,79.00
2022-08-10T02:34:35.445Z,79.70
2022-08-10T02:39:38.962Z,80.20
2022-08-10T02:45:22.201Z,80.50
2022-08-10T02:50:14.172Z,81.10
2022-08-10T02:55:22.338Z,81.60
2022-08-10T03:00:30.584Z,82.20
2022-08-10T03:05:35.835Z,82.40
2022-08-10T03:10:41.121Z,82.70
2022-08-10T03:15:46.066Z,82.80
2022-08-10T03:20:50.977Z,83.20
2022-08-10T03:25:55.366Z,82.80
2022-08-10T03:30:59.947Z,83.20
2022-08-10T03:36:43.890Z,82.80
2022-08-10T03:41:35.702Z,83.40
2022-08-10T03:46:44.626Z,83.60
2022-08-10T03:51:51.464Z,84.40
2022-08-10T03:56:54.725Z,85.30
2022-08-10T04:02:45.681Z,85.20
2022-08-10T04:07:23.318Z,85.80
2022-08-10T04:12:26.845Z,86.40
2022-08-10T04:17:59.507Z,87.10
2022-08-10T04:22:57.494Z,87.60
2022-08-10T04:28:03.723Z,87.90
2022-08-10T04:33:07.994Z,88.00
2022-08-10T04:38:14.161Z,88.40
2022-08-10T04:43:17.248Z,88.90
2022-08-10T04:48:42.781Z,88.70
2022-08-10T04:54:04.559Z,88.10
2022-08-10T04:59:10.823Z,86.00
2022-08-10T05:04:34.747Z,81.80
2022-08-10T05:10:03.614Z,81.10
2022-08-10T05:15:02.437Z,82.60
2022-08-10T05:20:07.579Z,83.80
2022-08-10T05:25:13.878Z,84.70
2022-08-10T05:30:19.214Z,85.20
2022-08-10T05:35:23.086Z,85.90
2022-08-10T05:40:28.322Z,86.40
2022-08-10T05:45:31.989Z,86.80
2022-08-10T05:50:36.083Z,86.90
2022-08-10T05:55:41.010Z,87.10
2022-08-10T06:00:49.642Z,87.10
2022-08-10T06:05:55.659Z,87.10
2022-08-10T06:12:23.446Z,87.00
2022-08-10T06:16:25.281Z,86.80
2022-08-10T06:21:30.039Z,86.50
2022-08-10T06:26:34.581Z,86.30
2022-08-10T06:31:47.878Z,86.10
2022-08-10T06:36:54.403Z,85.80
2022-08-10T06:42:15.924Z,85.50
2022-08-10T06:47:24.650Z,85.20
2022-08-10T06:52:28.592Z,84.90
2022-08-10T06:57:35.365Z,84.30
2022-08-10T07:03:06.974Z,83.90
2022-08-10T07:08:12.098Z,83.50
2022-08-10T07:14:15.798Z,82.90
2022-08-10T07:18:43.634Z,82.20
2022-08-10T07:23:59.258Z,81.30
2022-08-10T07:29:06.099Z,80.50
2022-08-10T07:34:10.234Z,79.80
2022-08-10T07:39:13.850Z,78.70
2022-08-10T07:44:19.314Z,77.90
2022-08-10T07:49:24.926Z,77.30
2022-08-10T07:54:30.473Z,76.30
2022-08-10T07:59:38.249Z,75.20
2022-08-10T08:04:42.415Z,74.00
2022-08-10T08:09:57.807Z,72.70
2022-08-10T08:16:14.475Z,71.50
2022-08-10T08:20:31.635Z,70.30
2022-08-10T08:25:35.870Z,69.40
2022-08-10T08:30:45.641Z,68.30
2022-08-10T08:35:52.370Z,66.80
2022-08-10T08:41:00.257Z,65.60
2022-08-10T08:46:18.455Z,64.70
2022-08-10T08:52:07.420Z,63.80
2022-08-10T08:57:01.795Z,62.20
2022-08-10T09:02:12.464Z,61.30
2022-08-10T09:07:59.689Z,60.20
2022-08-10T09:13:02.412Z,59.70
2022-08-10T09:18:10.019Z,58.10
2022-08-10T09:23:15.917Z,58.00
2022-08-10T09:28:21.610Z,56.60
2022-08-10T09:36:25.754Z,55.80
2022-08-10T09:39:08.964Z,55.20
2022-08-10T09:44:16.021Z,53.50
2022-08-10T09:49:52.946Z,54.00
2022-08-10T09:54:53.545Z,53.70
2022-08-10T10:00:04.358Z,52.70
2022-08-10T10:05:17.893Z,51.90
2022-08-10T10:10:23.676Z,52.00
2022-08-10T10:15:32.571Z,53.00
2022-08-10T10:20:38.870Z,51.90
2022-08-10T10:25:51.742Z,51.60
2022-08-10T10:31:03.531Z,51.50
2022-08-10T10:36:08.051Z,51.20
2022-08-10T10:41:15.364Z,51.00
2022-08-10T10:46:26.088Z,50.50
2022-08-10T10:51:34.412Z,50.50
2022-08-10T10:56:40.830Z,49.50
2022-08-10T11:01:49.140Z,49.20
2022-08-10T11:06:58.263Z,49.10
2022-08-10T11:12:13.066Z,48.70
2022-08-10T11:17:21.616Z,48.40
2022-08-10T11:22:30.153Z,48.30
2022-08-10T11:27:45.317Z,48.20
2022-08-10T11:32:57.380Z,48.00
2022-08-10T11:38:31.368Z,48.00
2022-08-10T11:43:31.232Z,47.10
2022-08-10T11:48:54.222Z,46.70
2022-08-10T11:54:01.431Z,46.10
2022-08-10T11:59:22.198Z,45.60
2022-08-10T12:04:29.011Z,45.20
2022-08-10T12:10:11.451Z,45.10
2022-08-10T12:14:58.257Z,45.10
2022-08-10T12:20:07.927Z,45.00
2022-08-10T12:25:49.584Z,44.90
2022-08-10T12:30:42.284Z,44.60
2022-08-10T12:36:14.806Z,44.10
2022-08-10T12:41:18.571Z,44.00
2022-08-10T12:46:48.602Z,43.30
2022-08-10T12:52:00.118Z,42.80
2022-08-10T12:57:04.963Z,42.80
2022-08-10T13:02:10.875Z,42.50
2022-08-10T13:08:25.687Z,42.70
2022-08-10T13:12:46.462Z,42.60
2022-08-10T13:17:52.514Z,42.60
2022-08-10T13:23:00.163Z,42.90
2022-08-10T13:28:36.999Z,43.00
2022-08-10T13:34:41.575Z,43.10
2022-08-10T13:38:56.217Z,43.20
2022-08-10T13:44:00.295Z,43.10
2022-08-10T13:49:04.434Z,43.10
2022-08-10T13:54:12.150Z,43.10
2022-08-10T13:59:16.669Z,43.20
2022-08-10T14:04:20.573Z,43.20
2022-08-10T14:09:29.793Z,43.10
2022-08-10T14:14:33.827Z,43.00
2022-08-10T14:19:39.431Z,43.00
2022-08-10T14:24:49.241Z,43.10
2022-08-10T14:29:55.079Z,43.10
2022-08-10T14:36:16.501Z,42.90
2022-08-10T14:40:25.687Z,42.50
2022-08-10T14:45:30.767Z,42.20
2022-08-10T14:50:34.593Z,41.80
2022-08-10T14:55:57.592Z,41.70
2022-08-10T15:01:05.111Z,41.60
2022-08-10T15:06:17.273Z,41.60
2022-08-10T15:12:13.572Z,41.30
2022-08-10T15:16:47.448Z,41.30
2022-08-10T15:22:03.799Z,41.40
2022-08-10T15:27:12.044Z,41.30
2022-08-10T15:32:32.678Z,41.00
2022-08-10T15:37:39.629Z,41.10
2022-08-10T15:42:54.224Z,41.10
2022-08-10T15:48:01.886Z,40.90
2022-08-10T15:53:15.747Z,41.40
2022-08-10T15:58:39.607Z,41.50
2022-08-10T16:03:46.072Z,41.60
2022-08-10T16:10:21.973Z,41.40
2022-08-10T16:14:28.646Z,42.00
2022-08-10T16:19:32.044Z,42.20
2022-08-10T16:24:37.392Z,42.20
2022-08-10T16:29:55.742Z,41.80
2022-08-10T16:35:01.807Z,42.30
2022-08-10T16:40:13.456Z,42.00
2022-08-10T16:45:20.104Z,41.30
2022-08-10T16:50:25.421Z,40.90
2022-08-10T16:55:47.895Z,40.40
2022-08-10T17:00:54.750Z,40.80
2022-08-10T17:06:09.925Z,40.90
2022-08-10T17:11:15.318Z,40.80
2022-08-10T17:16:21.753Z,40.30
2022-08-10T17:21:27.372Z,40.70
2022-08-10T17:26:35.539Z,40.10
2022-08-10T17:31:54.912Z,40.50
2022-08-10T17:36:59.953Z,40.40
2022-08-10T17:42:03.439Z,40.50
2022-08-10T17:47:11.146Z,40.50
2022-08-10T17:52:20.010Z,40.50
2022-08-10T17:57:23.932Z,40.40
2022-08-10T18:02:29.806Z,40.80
2022-08-10T18:07:35.354Z,40.80
2022-08-10T18:12:41.825Z,41.00
2022-08-10T18:17:51.011Z,41.20
2022-08-10T18:22:56.044Z,41.70
2022-08-10T18:28:08.493Z,41.80
2022-08-10T18:33:14.528Z,42.50
2022-08-10T18:38:18.939Z,43.00
2022-08-10T18:44:07.238Z,43.40
2022-08-10T18:48:54.827Z,43.80
2022-08-10T18:54:00.465Z,44.30
2022-08-10T18:59:09.680Z,44.80
2022-08-10T19:04:25.268Z,45.20
2022-08-10T19:09:47.425Z,45.60
2022-08-10T19:14:55.719Z,46.20
2022-08-10T19:20:04.851Z,46.60
2022-08-10T19:25:14.726Z,47.00
2022-08-10T19:30:19.792Z,47.40
2022-08-10T19:35:31.434Z,47.80
2022-08-10T19:40:46.316Z,47.80
2022-08-10T19:46:02.315Z,48.50
2022-08-10T19:51:12.584Z,49.10
2022-08-10T19:56:33.459Z,49.50
2022-08-10T20:01:54.511Z,49.80
2022-08-10T20:07:13.492Z,50.10
2022-08-10T20:12:20.163Z,50.40
2022-08-10T20:17:26.290Z,50.70
2022-08-10T20:22:33.727Z,51.20
2022-08-10T20:27:59.232Z,51.70
2022-08-10T20:33:08.767Z,52.20
2022-08-10T20:38:16.096Z,52.80
2022-08-10T20:43:22.920Z,53.60
2022-08-10T20:48:29.513Z,53.50
2022-08-10T20:53:35.163Z,53.90
2022-08-10T20:58:43.903Z,54.10
2022-08-10T21:04:01.285Z,54.10
2022-08-10T21:09:16.306Z,54.50
2022-08-10T21:14:29.682Z,54.30
2022-08-10T21:19:55.434Z,54.80
2022-08-10T21:25:02.424Z,55.30
2022-08-10T21:35:37.562Z,56.00
2022-08-10T21:41:17.134Z,56.50
2022-08-10T21:46:55.232Z,56.60
2022-08-10T21:52:21.743Z,57.10
2022-08-10T21:57:45.522Z,57.10
2022-08-10T22:03:06.519Z,57.30
2022-08-10T22:08:29.347Z,57.30
2022-08-10T22:13:53.759Z,57.20
2022-08-10T22:19:16.877Z,57.30
2022-08-10T22:24:45.145Z,57.40
2022-08-10T22:30:11.506Z,57.40
2022-08-10T22:31:28.595Z,55.80
2022-08-10T22:35:47.189Z,57.60
2022-08-10T22:41:08.570Z,57.40
2022-08-10T22:46:34.260Z,57.40
2022-08-10T22:51:47.054Z,57.40
2022-08-10T22:57:07.650Z,57.50
2022-08-10T23:02:13.438Z,57.80
2022-08-10T23:07:21.126Z,57.90
2022-08-10T23:12:26.628Z,58.00
2022-08-10T23:18:01.773Z,58.30
2022-08-10T23:23:09.913Z,58.40
2022-08-10T23:28:14.492Z,58.70
2022-08-10T23:33:38.092Z,59.20
2022-08-10T23:38:42.575Z,59.40
2022-08-10T23:44:03.268Z,59.70
2022-08-10T23:49:11.484Z,59.90
2022-08-10T23:54:16.793Z,60.10
2022-08-10T23:59:21.367Z,60.20
